X  Blizu METAR Podaci o vazduhoplovstvu     KDNN Dalton Municipal Airport
Temperatura
20°C Temperatura
20°C Tačka Rose
100% Vlaga



Vetar
8 KM/S
5 MPS
2 M/S
4 Čvorovi



150°
JJI
Trenutna situacija

Oblačno Oblačno
Vazdušni pritisak 1012.19 (hPa) - 29.89 (inHg)
Vidljivost 10 (Milje) - 16.1 (km)
Aerodrom
Aerodromski kod. KDNN

Lokacija: Dalton Municipal Airport
Udaljenost: 34 (km)

Metar:
KDNN 181215Z AUTO 15004KT 10SM OVC030 20/20 A2989 RMK AO2 T01980198

Vreme: 05-18-2024 08:15 EDT